Terminal Aerodrome Forecast
Issued by NWS

Home | Current Version | Previous Version | Text Only | Print | Product List | Glossary On
Versions: 1 2 3 4 5 6 7 8 9 10 11 12 13 14 15 16 17 18 19 20 21 22 23 24 25 26
000
FTUS45 KCYS 231745 CCA
TAFRWL
TAF COR
KRWL 231745Z 2318/2418 08020G30KT 1/2SM SN BLSN OVC007
      TEMPO 2318/2322 6SM -SN BLSN OVC020
     FM240400 02015G25KT 1/2SM SN BLSN OVC007
     FM241500 03013KT 1SM -SN BR OVC015=

USA.gov is the U.S. government's official web portal to all federal, state and local government web resources and services.